createdAt,value
2019-01-20T00:00:16.291Z,-6.30
2019-01-20T00:02:44.734Z,-6.40
2019-01-20T00:05:14.608Z,-6.40
2019-01-20T00:07:43.090Z,-6.50
2019-01-20T00:10:13.118Z,-6.50
2019-01-20T00:12:41.597Z,-6.50
2019-01-20T00:15:13.071Z,-6.40
2019-01-20T00:17:41.874Z,-6.40
2019-01-20T00:20:10.992Z,-6.40
2019-01-20T00:22:39.522Z,-6.40
2019-01-20T00:25:10.938Z,-6.40
2019-01-20T00:27:39.754Z,-6.50
2019-01-20T00:30:16.162Z,-6.60
2019-01-20T00:32:44.635Z,-6.60
2019-01-20T00:35:13.109Z,-6.60
2019-01-20T00:37:41.586Z,-6.50
2019-01-20T00:40:13.274Z,-6.50
2019-01-20T00:42:41.731Z,-6.60
2019-01-20T00:45:13.481Z,-6.60
2019-01-20T00:47:41.945Z,-6.50
2019-01-20T00:50:12.662Z,-6.50
2019-01-20T00:52:41.209Z,-6.60
2019-01-20T00:55:12.433Z,-6.60
2019-01-20T00:57:41.449Z,-6.70
2019-01-20T01:00:19.335Z,-6.70
2019-01-20T01:02:48.337Z,-6.70
2019-01-20T01:05:17.379Z,-6.70
2019-01-20T01:07:46.022Z,-6.80
2019-01-20T01:10:14.880Z,-6.80
2019-01-20T01:12:43.434Z,-6.90
2019-01-20T01:15:12.727Z,-6.80
2019-01-20T01:17:41.229Z,-6.90
2019-01-20T01:20:12.947Z,-6.90
2019-01-20T01:22:42.263Z,-6.90
2019-01-20T01:25:12.665Z,-6.90
2019-01-20T01:27:41.697Z,-6.90
2019-01-20T01:30:16.917Z,-6.90
2019-01-20T01:32:45.717Z,-6.90
2019-01-20T01:35:14.740Z,-6.90
2019-01-20T01:37:43.291Z,-6.90
2019-01-20T01:40:14.617Z,-6.90
2019-01-20T01:42:43.534Z,-6.80
2019-01-20T01:45:17.536Z,-6.80
2019-01-20T01:47:46.442Z,-6.80
2019-01-20T01:50:16.317Z,-6.80
2019-01-20T01:52:44.833Z,-6.80
2019-01-20T01:55:13.712Z,-6.80
2019-01-20T01:57:42.208Z,-6.80
2019-01-20T02:00:19.713Z,-6.80
2019-01-20T02:02:48.754Z,-6.70
2019-01-20T02:05:17.492Z,-6.70
2019-01-20T02:07:46.023Z,-6.60
2019-01-20T02:10:19.984Z,-6.60
2019-01-20T02:12:49.421Z,-6.50
2019-01-20T02:15:20.175Z,-6.50
2019-01-20T02:17:48.839Z,-6.40
2019-01-20T02:20:23.027Z,-6.40
2019-01-20T02:22:52.203Z,-6.40
2019-01-20T02:25:21.047Z,-6.40
2019-01-20T02:27:51.252Z,-6.30
2019-01-20T02:30:25.121Z,-6.30
2019-01-20T02:32:53.603Z,-6.30
2019-01-20T02:35:22.349Z,-6.10
2019-01-20T02:37:51.127Z,-6.10
2019-01-20T02:40:19.966Z,-6.00
2019-01-20T02:42:48.455Z,-6.00
2019-01-20T02:45:17.539Z,-5.90
2019-01-20T02:47:46.400Z,-5.90
2019-01-20T02:50:17.854Z,-5.90
2019-01-20T02:52:46.407Z,-5.90
2019-01-20T02:55:15.315Z,-5.90
2019-01-20T02:57:43.856Z,-5.80
2019-01-20T03:00:18.541Z,-5.80
2019-01-20T03:02:47.102Z,-5.90
2019-01-20T03:05:16.241Z,-5.90
2019-01-20T03:07:44.718Z,-5.90
2019-01-20T03:10:14.538Z,-5.90
2019-01-20T03:12:43.031Z,-5.90
2019-01-20T03:15:13.444Z,-5.90
2019-01-20T03:17:41.910Z,-5.90
2019-01-20T03:20:14.038Z,-5.90
2019-01-20T03:22:42.520Z,-5.90
2019-01-20T03:25:13.736Z,-5.90
2019-01-20T03:27:42.737Z,-5.90
2019-01-20T03:30:16.944Z,-5.90
2019-01-20T03:32:45.710Z,-5.90
2019-01-20T03:35:16.988Z,-5.90
2019-01-20T03:37:45.505Z,-5.80
2019-01-20T03:40:16.931Z,-5.80
2019-01-20T03:42:45.404Z,-5.80
2019-01-20T03:45:16.130Z,-5.80
2019-01-20T03:47:44.958Z,-5.80
2019-01-20T03:50:15.883Z,-5.70
2019-01-20T03:52:44.656Z,-5.60
2019-01-20T03:55:15.467Z,-5.50
2019-01-20T03:57:43.961Z,-5.50
2019-01-20T04:00:18.312Z,-5.50
2019-01-20T04:02:48.723Z,-5.50
2019-01-20T04:05:17.204Z,-5.40
2019-01-20T04:07:45.703Z,-5.30
2019-01-20T04:10:16.235Z,-5.20
2019-01-20T04:12:44.797Z,-5.20
2019-01-20T04:15:15.427Z,-5.10
2019-01-20T04:17:44.364Z,-5.00
2019-01-20T04:20:14.606Z,-5.00
2019-01-20T04:22:43.257Z,-4.90
2019-01-20T04:25:14.785Z,-4.90
2019-01-20T04:27:43.272Z,-4.90
2019-01-20T04:30:14.575Z,-4.90
2019-01-20T04:32:43.052Z,-4.80
2019-01-20T04:35:12.466Z,-4.70
2019-01-20T04:37:40.951Z,-4.60
2019-01-20T04:40:15.247Z,-4.60
2019-01-20T04:42:44.128Z,-4.60
2019-01-20T04:45:14.353Z,-4.60
2019-01-20T04:47:43.286Z,-4.60
2019-01-20T04:50:16.943Z,-4.60
2019-01-20T04:52:45.687Z,-4.60
2019-01-20T04:55:15.495Z,-4.60
2019-01-20T04:57:45.682Z,-4.60
2019-01-20T05:00:22.388Z,-4.70
2019-01-20T05:02:50.857Z,-4.70
2019-01-20T05:05:19.784Z,-4.70
2019-01-20T05:07:48.247Z,-4.60
2019-01-20T05:10:18.726Z,-4.60
2019-01-20T05:12:47.283Z,-4.60
2019-01-20T05:15:18.483Z,-4.60
2019-01-20T05:17:46.965Z,-4.70
2019-01-20T05:20:16.288Z,-4.70
2019-01-20T05:22:44.739Z,-4.70
2019-01-20T05:25:14.179Z,-4.80
2019-01-20T05:27:42.792Z,-4.80
2019-01-20T05:30:20.195Z,-4.80
2019-01-20T05:32:48.772Z,-4.80
2019-01-20T05:35:17.236Z,-4.80
2019-01-20T05:37:45.732Z,-4.80
2019-01-20T05:40:19.221Z,-4.90
2019-01-20T05:42:48.322Z,-4.90
2019-01-20T05:45:22.099Z,-4.90
2019-01-20T05:47:50.550Z,-4.90
2019-01-20T05:50:19.219Z,-5.00
2019-01-20T05:52:47.713Z,-5.00
2019-01-20T05:55:16.662Z,-4.90
2019-01-20T05:57:45.116Z,-4.90
2019-01-20T06:00:19.333Z,-4.90
2019-01-20T06:02:47.815Z,-4.90
2019-01-20T06:05:16.296Z,-4.80
2019-01-20T06:07:44.754Z,-4.80
2019-01-20T06:10:14.468Z,-4.80
2019-01-20T06:12:42.949Z,-4.80
2019-01-20T06:15:17.026Z,-4.80
2019-01-20T06:17:45.623Z,-4.80
2019-01-20T06:20:15.350Z,-4.80
2019-01-20T06:22:44.261Z,-4.90
2019-01-20T06:25:13.270Z,-4.90
2019-01-20T06:27:41.898Z,-4.90
2019-01-20T06:30:19.344Z,-4.90
2019-01-20T06:32:47.798Z,-4.90
2019-01-20T06:35:16.673Z,-4.90
2019-01-20T06:37:45.217Z,-4.80
2019-01-20T06:40:14.142Z,-4.80
2019-01-20T06:42:42.611Z,-4.70
2019-01-20T06:45:13.347Z,-4.70
2019-01-20T06:47:43.051Z,-4.70
2019-01-20T06:50:14.638Z,-4.80
2019-01-20T06:52:43.201Z,-4.80
2019-01-20T06:55:12.695Z,-4.90
2019-01-20T06:57:41.507Z,-4.90
2019-01-20T07:00:15.586Z,-4.90
2019-01-20T07:02:44.132Z,-4.80
2019-01-20T07:05:13.601Z,-4.60
2019-01-20T07:07:42.283Z,-4.60
2019-01-20T07:10:15.850Z,-4.50
2019-01-20T07:12:44.597Z,-4.50
2019-01-20T07:15:16.077Z,-4.50
2019-01-20T07:17:44.698Z,-4.60
2019-01-20T07:20:14.233Z,-4.60
2019-01-20T07:22:42.719Z,-4.60
2019-01-20T07:25:11.906Z,-4.70
2019-01-20T07:27:40.461Z,-4.70
2019-01-20T07:30:18.664Z,-4.70
2019-01-20T07:32:47.553Z,-4.70
2019-01-20T07:35:16.469Z,-4.60
2019-01-20T07:37:44.978Z,-4.60
2019-01-20T07:40:18.672Z,-4.40
2019-01-20T07:42:47.509Z,-4.40
2019-01-20T07:45:17.508Z,-4.30
2019-01-20T07:47:45.952Z,-4.20
2019-01-20T07:50:22.860Z,-4.20
2019-01-20T07:52:51.462Z,-4.10
2019-01-20T07:55:19.946Z,-4.00
2019-01-20T07:57:49.179Z,-4.00
2019-01-20T08:00:20.479Z,-3.90
2019-01-20T08:02:48.928Z,-3.80
2019-01-20T08:05:19.537Z,-3.80
2019-01-20T08:07:48.259Z,-3.70
2019-01-20T08:10:19.468Z,-3.60
2019-01-20T08:12:48.205Z,-3.50
2019-01-20T08:15:18.258Z,-3.40
2019-01-20T08:21:14.902Z,-3.20
2019-01-20T08:23:43.309Z,-3.10
2019-01-20T08:26:11.733Z,-2.90
2019-01-20T08:28:40.155Z,-2.80
2019-01-20T08:31:08.590Z,-2.70
2019-01-20T08:33:36.985Z,-2.60
2019-01-20T08:36:05.420Z,-2.40
2019-01-20T08:38:34.110Z,-2.30
2019-01-20T08:41:02.528Z,-2.10
2019-01-20T08:43:31.869Z,-2.00
2019-01-20T08:46:12.858Z,-2.00
2019-01-20T08:48:41.275Z,-1.90
2019-01-20T08:51:09.968Z,-1.80
2019-01-20T08:53:38.407Z,-1.70
2019-01-20T08:56:06.819Z,-1.60
2019-01-20T08:58:35.288Z,-1.50
2019-01-20T09:01:04.054Z,-1.40
2019-01-20T09:03:32.466Z,-1.30
2019-01-20T09:06:00.880Z,-1.20
2019-01-20T09:08:29.309Z,-1.10
2019-01-20T09:10:57.712Z,-1.20
2019-01-20T09:13:26.572Z,-1.30
2019-01-20T09:15:54.980Z,-1.30
2019-01-20T09:18:23.430Z,-1.20
2019-01-20T09:20:51.833Z,-1.10
2019-01-20T09:23:20.248Z,-1.00
2019-01-20T09:25:49.027Z,-1.00
2019-01-20T09:28:17.466Z,-1.00
2019-01-20T09:30:46.212Z,-1.00
2019-01-20T09:33:14.653Z,-1.00
2019-01-20T09:35:43.045Z,-1.00
2019-01-20T09:38:11.540Z,-1.00
2019-01-20T09:40:39.955Z,-0.90
2019-01-20T09:43:08.384Z,-0.70
2019-01-20T09:45:37.073Z,-0.60
2019-01-20T09:48:05.749Z,-0.50
2019-01-20T09:50:34.187Z,-0.60
2019-01-20T09:53:02.598Z,-0.50
2019-01-20T09:55:35.635Z,-0.50
2019-01-20T09:58:04.330Z,-0.40
2019-01-20T10:00:34.830Z,-0.40
2019-01-20T10:03:03.251Z,-0.40
2019-01-20T10:05:32.112Z,-0.40
2019-01-20T10:08:00.539Z,-0.40
2019-01-20T10:10:28.970Z,-0.30
2019-01-20T10:12:57.396Z,-0.30
2019-01-20T10:15:25.807Z,-0.10
2019-01-20T10:17:54.493Z,-0.10
2019-01-20T10:20:32.908Z,-0.20
2019-01-20T10:23:01.797Z,-0.10
2019-01-20T10:25:30.214Z,0.00
2019-01-20T10:27:58.622Z,0.20
2019-01-20T10:30:32.558Z,0.30
2019-01-20T10:33:08.457Z,0.30
2019-01-20T10:35:48.711Z,0.30
2019-01-20T10:38:17.160Z,0.20
2019-01-20T10:40:45.565Z,0.30
2019-01-20T10:43:13.999Z,0.30
2019-01-20T10:45:42.415Z,0.30
2019-01-20T10:48:10.859Z,0.40
2019-01-20T10:50:39.355Z,0.50
2019-01-20T10:53:08.001Z,0.60
2019-01-20T10:55:37.313Z,0.60
2019-01-20T10:58:07.175Z,0.60
2019-01-20T11:00:38.311Z,0.60
2019-01-20T11:03:07.439Z,0.70
2019-01-20T11:05:36.047Z,0.70
2019-01-20T11:08:06.014Z,0.70
2019-01-20T11:10:37.564Z,0.80
2019-01-20T11:13:07.730Z,0.80
2019-01-20T11:15:36.889Z,0.80
2019-01-20T11:18:06.156Z,0.80
2019-01-20T11:20:34.863Z,0.80
2019-01-20T11:23:03.624Z,0.90
2019-01-20T11:25:38.293Z,0.90
2019-01-20T11:28:07.004Z,0.80
2019-01-20T11:30:35.615Z,0.90
2019-01-20T11:33:04.582Z,1.10
2019-01-20T11:35:33.010Z,1.30
2019-01-20T11:38:01.414Z,1.30
2019-01-20T11:40:29.836Z,1.40
2019-01-20T11:42:58.253Z,1.50
2019-01-20T11:45:29.454Z,1.60
2019-01-20T11:47:57.939Z,1.70
2019-01-20T11:50:26.720Z,1.80
2019-01-20T11:52:55.134Z,1.90
2019-01-20T11:55:24.745Z,2.10
2019-01-20T11:57:53.297Z,2.20
2019-01-20T12:00:33.146Z,2.30
2019-01-20T12:03:01.846Z,2.40
2019-01-20T12:05:31.689Z,2.40
2019-01-20T12:08:00.108Z,2.40
2019-01-20T12:10:28.676Z,2.50
2019-01-20T12:13:01.361Z,2.50
2019-01-20T12:15:29.768Z,2.50
2019-01-20T12:18:00.609Z,2.50
2019-01-20T12:20:29.022Z,2.40
2019-01-20T12:22:59.949Z,2.40
2019-01-20T12:25:30.743Z,2.30
2019-01-20T12:27:59.180Z,2.30
2019-01-20T12:30:33.410Z,2.30
2019-01-20T12:33:02.041Z,2.20
2019-01-20T12:35:30.447Z,2.20
2019-01-20T12:37:58.923Z,2.30
2019-01-20T12:40:33.893Z,2.30
2019-01-20T12:43:02.671Z,2.30
2019-01-20T12:45:34.161Z,2.30
2019-01-20T12:48:02.955Z,2.30
2019-01-20T12:50:31.770Z,2.40
2019-01-20T12:53:00.521Z,2.40
2019-01-20T12:55:28.931Z,2.40
2019-01-20T12:57:57.348Z,2.30
2019-01-20T13:00:26.033Z,2.20
2019-01-20T13:02:54.431Z,2.20
2019-01-20T13:05:22.838Z,2.40
2019-01-20T13:07:51.240Z,2.50
2019-01-20T13:10:20.150Z,2.70
2019-01-20T13:12:48.877Z,2.70
2019-01-20T13:15:19.938Z,2.70
2019-01-20T13:17:48.609Z,2.80
2019-01-20T13:20:19.157Z,2.70
2019-01-20T13:22:47.784Z,2.70
2019-01-20T13:25:18.947Z,2.70
2019-01-20T13:27:47.352Z,2.70
2019-01-20T13:30:18.408Z,2.70
2019-01-20T13:32:46.826Z,2.70
2019-01-20T13:35:16.501Z,2.80
2019-01-20T13:37:47.835Z,2.80
2019-01-20T13:40:39.267Z,2.80
2019-01-20T13:43:07.669Z,2.60
2019-01-20T13:45:36.104Z,2.60
2019-01-20T13:48:04.880Z,2.50
2019-01-20T13:50:33.602Z,2.40
2019-01-20T13:53:02.089Z,2.40
2019-01-20T13:55:30.701Z,2.20
2019-01-20T13:57:59.109Z,2.10
2019-01-20T14:00:28.195Z,2.10
2019-01-20T14:02:56.600Z,2.10
2019-01-20T14:05:25.032Z,2.10
2019-01-20T14:07:53.439Z,2.10
2019-01-20T14:10:25.103Z,2.10
2019-01-20T14:12:53.504Z,2.20
2019-01-20T14:15:21.911Z,2.20
2019-01-20T14:17:50.569Z,2.10
2019-01-20T14:20:26.973Z,2.10
2019-01-20T14:22:56.036Z,2.00
2019-01-20T14:25:29.332Z,2.00
2019-01-20T14:27:57.799Z,2.00
2019-01-20T14:30:31.586Z,1.90
2019-01-20T14:33:00.789Z,1.90
2019-01-20T14:35:30.141Z,1.90
2019-01-20T14:37:58.550Z,1.90
2019-01-20T14:40:27.264Z,1.80
2019-01-20T14:42:57.071Z,1.80
2019-01-20T14:45:25.510Z,1.80
2019-01-20T14:47:54.228Z,1.70
2019-01-20T14:50:28.255Z,1.70
2019-01-20T14:52:57.344Z,1.70
2019-01-20T14:55:26.537Z,1.70
2019-01-20T14:57:55.963Z,1.70
2019-01-20T15:00:45.510Z,1.60
2019-01-20T15:03:15.012Z,1.60
2019-01-20T15:05:43.698Z,1.50
2019-01-20T15:08:15.372Z,1.40
2019-01-20T15:10:44.468Z,1.30
2019-01-20T15:13:15.996Z,1.20
2019-01-20T15:15:50.838Z,1.30
2019-01-20T15:18:21.227Z,1.30
2019-01-20T15:20:49.907Z,1.20
2019-01-20T15:23:18.312Z,1.20
2019-01-20T15:25:46.740Z,1.20
2019-01-20T15:28:15.135Z,1.10
2019-01-20T15:30:43.561Z,1.00
2019-01-20T15:33:11.978Z,1.00
2019-01-20T15:35:40.537Z,0.90
2019-01-20T15:38:09.017Z,0.80
2019-01-20T15:40:37.456Z,0.70
2019-01-20T15:43:06.007Z,0.70
2019-01-20T15:45:34.500Z,0.60
2019-01-20T15:48:03.436Z,0.60
2019-01-20T15:50:33.307Z,0.50
2019-01-20T15:53:01.952Z,0.50
2019-01-20T15:55:30.972Z,0.50
2019-01-20T15:57:59.684Z,0.50
2019-01-20T16:00:32.621Z,0.40
2019-01-20T16:03:01.292Z,0.40
2019-01-20T16:05:30.544Z,0.40
2019-01-20T16:07:59.243Z,0.30
2019-01-20T16:10:27.940Z,0.30
2019-01-20T16:12:56.811Z,0.20
2019-01-20T16:15:30.993Z,0.20
2019-01-20T16:17:59.416Z,0.10
2019-01-20T16:20:29.174Z,0.00
2019-01-20T16:22:58.121Z,0.00
2019-01-20T16:25:29.575Z,-0.10
2019-01-20T16:27:57.984Z,-0.10
2019-01-20T16:30:29.497Z,-0.10
2019-01-20T16:32:58.081Z,-0.10
2019-01-20T16:35:27.183Z,-0.10
2019-01-20T16:37:57.332Z,-0.10
2019-01-20T16:40:26.522Z,-0.20
2019-01-20T16:42:54.932Z,-0.20
2019-01-20T16:45:41.617Z,-0.20
2019-01-20T16:48:05.872Z,-0.30
2019-01-20T16:50:34.556Z,-0.30
2019-01-20T16:53:02.963Z,-0.40
2019-01-20T16:55:31.379Z,-0.40
2019-01-20T16:57:59.795Z,-0.40
2019-01-20T17:00:31.206Z,-0.40
2019-01-20T17:02:59.659Z,-0.30
2019-01-20T17:05:28.077Z,-0.20
2019-01-20T17:07:57.530Z,-0.20
2019-01-20T17:10:28.699Z,-0.20
2019-01-20T17:12:57.132Z,-0.20
2019-01-20T17:15:27.978Z,-0.20
2019-01-20T17:17:56.714Z,-0.10
2019-01-20T17:20:25.165Z,-0.10
2019-01-20T17:22:53.561Z,0.00
2019-01-20T17:25:21.968Z,-0.10
2019-01-20T17:27:50.742Z,-0.20
2019-01-20T17:30:27.671Z,-0.20
2019-01-20T17:32:56.085Z,-0.30
2019-01-20T17:35:24.493Z,-0.30
2019-01-20T17:37:52.911Z,-0.30
2019-01-20T17:40:23.568Z,-0.30
2019-01-20T17:42:52.004Z,-0.30
2019-01-20T17:45:23.112Z,-0.30
2019-01-20T17:47:51.611Z,-0.30
2019-01-20T17:50:31.491Z,-0.30
2019-01-20T17:53:00.360Z,-0.30
2019-01-20T17:55:28.950Z,-0.30
2019-01-20T17:57:57.368Z,-0.30
2019-01-20T18:00:32.738Z,-0.30
2019-01-20T18:03:01.708Z,-0.40
2019-01-20T18:05:30.398Z,-0.40
2019-01-20T18:07:58.820Z,-0.40
2019-01-20T18:10:27.503Z,-0.40
2019-01-20T18:12:55.928Z,-0.40
2019-01-20T18:15:26.490Z,-0.40
2019-01-20T18:17:54.909Z,-0.50
2019-01-20T18:20:33.587Z,-0.40
2019-01-20T18:23:02.084Z,-0.40
2019-01-20T18:25:30.620Z,-0.50
2019-01-20T18:27:59.068Z,-0.50
2019-01-20T18:30:31.699Z,-0.50
2019-01-20T18:33:00.151Z,-0.50
2019-01-20T18:35:29.125Z,-0.50
2019-01-20T18:37:57.765Z,-0.50
2019-01-20T18:40:27.006Z,-0.60
2019-01-20T18:42:55.698Z,-0.50
2019-01-20T18:45:29.836Z,-0.50
2019-01-20T18:47:58.257Z,-0.50
2019-01-20T18:50:31.605Z,-0.50
2019-01-20T18:53:00.023Z,-0.60
2019-01-20T18:55:28.760Z,-0.60
2019-01-20T18:57:57.466Z,-0.60
2019-01-20T19:00:28.956Z,-0.60
2019-01-20T19:02:57.389Z,-0.60
2019-01-20T19:05:26.457Z,-0.50
2019-01-20T19:07:55.583Z,-0.50
2019-01-20T19:10:24.761Z,-0.60
2019-01-20T19:12:53.190Z,-0.60
2019-01-20T19:15:23.337Z,-0.50
2019-01-20T19:17:51.924Z,-0.50
2019-01-20T19:20:22.684Z,-0.60
2019-01-20T19:22:53.561Z,-0.60
2019-01-20T19:25:22.471Z,-0.50
2019-01-20T19:27:50.885Z,-0.50
2019-01-20T19:30:28.242Z,-0.50
2019-01-20T19:32:56.663Z,-0.60
2019-01-20T19:35:26.073Z,-0.60
2019-01-20T19:37:54.497Z,-0.60
2019-01-20T19:40:22.914Z,-0.60
2019-01-20T19:42:51.343Z,-0.60
2019-01-20T19:45:20.914Z,-0.60
2019-01-20T19:47:49.770Z,-0.60
2019-01-20T19:50:18.902Z,-0.60
2019-01-20T19:52:47.659Z,-0.60
2019-01-20T19:55:21.479Z,-0.60
2019-01-20T19:57:49.943Z,-0.70
2019-01-20T20:00:23.863Z,-0.70
2019-01-20T20:02:52.538Z,-0.70
2019-01-20T20:05:22.122Z,-0.70
2019-01-20T20:07:51.639Z,-0.70
2019-01-20T20:10:22.501Z,-0.70
2019-01-20T20:12:50.918Z,-0.60
2019-01-20T20:15:24.177Z,-0.60
2019-01-20T20:17:53.137Z,-0.60
2019-01-20T20:20:22.301Z,-0.60
2019-01-20T20:22:50.777Z,-0.60
2019-01-20T20:25:24.497Z,-0.60
2019-01-20T20:27:54.148Z,-0.60
2019-01-20T20:30:34.397Z,-0.50
2019-01-20T20:33:02.807Z,-0.50
2019-01-20T20:35:31.321Z,-0.60
2019-01-20T20:37:59.784Z,-0.60
2019-01-20T20:40:28.595Z,-0.60
2019-01-20T20:42:58.125Z,-0.60
2019-01-20T20:45:28.125Z,-0.70
2019-01-20T20:47:56.536Z,-0.70
2019-01-20T20:50:24.956Z,-0.60
2019-01-20T20:52:53.430Z,-0.60
2019-01-20T20:55:21.930Z,-0.60
2019-01-20T20:57:50.414Z,-0.60
2019-01-20T21:00:22.499Z,-0.70
2019-01-20T21:02:50.906Z,-0.70
2019-01-20T21:05:19.326Z,-0.70
2019-01-20T21:07:47.800Z,-0.80
2019-01-20T21:10:18.883Z,-0.90
2019-01-20T21:12:47.476Z,-0.80
2019-01-20T21:15:16.789Z,-0.80
2019-01-20T21:17:48.254Z,-0.80
2019-01-20T21:20:18.332Z,-0.90
2019-01-20T21:22:46.742Z,-0.90
2019-01-20T21:25:15.428Z,-0.90
2019-01-20T21:27:43.849Z,-0.90
2019-01-20T21:30:26.324Z,-1.00
2019-01-20T21:32:54.945Z,-1.00
2019-01-20T21:35:23.650Z,-1.00
2019-01-20T21:37:52.516Z,-1.10
2019-01-20T21:40:21.472Z,-1.00
2019-01-20T21:42:49.883Z,-1.00
2019-01-20T21:45:19.385Z,-0.90
2019-01-20T21:47:47.796Z,-0.90
2019-01-20T21:50:27.624Z,-0.90
2019-01-20T21:52:56.390Z,-1.00
2019-01-20T21:55:24.817Z,-1.00
2019-01-20T21:57:53.242Z,-1.00
2019-01-20T22:00:26.994Z,-1.00
2019-01-20T22:02:56.247Z,-1.00
2019-01-20T22:05:24.669Z,-0.90
2019-01-20T22:07:53.088Z,-0.90
2019-01-20T22:10:23.246Z,-0.90
2019-01-20T22:12:51.661Z,-0.80
2019-01-20T22:15:20.629Z,-0.80
2019-01-20T22:17:50.308Z,-0.80
2019-01-20T22:20:21.070Z,-0.80
2019-01-20T22:22:50.233Z,-0.80
2019-01-20T22:25:20.460Z,-0.80
2019-01-20T22:27:48.888Z,-0.80
2019-01-20T22:30:20.330Z,-0.80
2019-01-20T22:32:48.730Z,-0.70
2019-01-20T22:35:17.436Z,-0.80
2019-01-20T22:37:46.223Z,-0.80
2019-01-20T22:40:16.980Z,-0.80
2019-01-20T22:42:45.393Z,-0.90
2019-01-20T22:45:24.864Z,-0.90
2019-01-20T22:47:53.555Z,-0.90
2019-01-20T22:50:22.092Z,-0.90
2019-01-20T22:52:50.858Z,-0.90
2019-01-20T22:55:19.358Z,-0.90
2019-01-20T22:57:47.781Z,-0.90
2019-01-20T23:00:29.939Z,-0.90
2019-01-20T23:02:58.336Z,-0.90
2019-01-20T23:05:26.765Z,-0.90
2019-01-20T23:07:55.168Z,-0.90
2019-01-20T23:10:23.896Z,-1.00
2019-01-20T23:12:52.302Z,-1.00
2019-01-20T23:15:20.728Z,-1.10
2019-01-20T23:17:49.467Z,-1.10
2019-01-20T23:20:18.477Z,-1.10
2019-01-20T23:22:46.891Z,-1.10
2019-01-20T23:25:15.309Z,-1.10
2019-01-20T23:27:44.153Z,-1.10
2019-01-20T23:30:16.538Z,-1.10
2019-01-20T23:32:44.949Z,-1.10
2019-01-20T23:35:13.841Z,-1.10
2019-01-20T23:37:42.610Z,-1.20
2019-01-20T23:40:15.536Z,-1.20
2019-01-20T23:42:43.953Z,-1.20
2019-01-20T23:45:13.811Z,-1.20
2019-01-20T23:47:42.249Z,-1.30
2019-01-20T23:50:17.588Z,-1.30
2019-01-20T23:52:46.167Z,-1.40
2019-01-20T23:55:14.716Z,-1.40
2019-01-20T23:57:43.139Z,-1.40
